Hameh'id, Iran

1:16 PM +0430 on May 23, 2017 (GMT +0430)
Dezful Air Base | | Change Station

Elev 472 ft 32.43 °N, 48.40 °E | Updated 46 minutes ago

Clear
Clear
99 °F
Feels Like 109 °F
N
7
Wind Variable Wind from NNW

Today
High -- | Low -- °F
--% Chance of Precip.
Yesterday
High -- | Low -- °F
Precip. -- in
Pressure 29.80 in
Visibility 4.3 miles
Clouds
Heat Index 109 °F
Dew Point 73 °F
Humidity 44%
Rainfall 0.00 in
Snow Depth Not available.
6:16 AM 8:15 PM
Waning Crescent, 9% visible
METAR OIAD 230800Z 34006KT 7000 NSC 37/23 Q1009 A2982
Pressure 29.80 in
Visibility 4.3 miles
Clouds
Heat Index 109 °F
Dew Point 73 °F
Humidity 44%
Rainfall 0.00 in
Snow Depth Not available.
6:16 AM 8:15 PM
Waning Crescent, 9% visible
METAR OIAD 230800Z 34006KT 7000 NSC 37/23 Q1009 A2982

Get Severe Weather Alerts

Thanks for signing up!

Be on the lookout for a verification email in your inbox.

You'll start receiving the daily forecast at 6 AM.

×

10-Day Weather Forecast

No radar image for this location.
×

Almanac

Astronomy

May. 23, 2017 Rise Set
Actual Time
Civil Twilight
Nautical Twilight
Astronomical Twilight
Moon
Length of Visible Light
Length of Day
Tomorrow will be .
, % of the Moon is Illuminated

Today's Extremes

Country Highs Country Lows

Community

WunderPhotos

Category 6

Welcome to Category 6. This is the collective home for Weather Underground's featured writeups by Dr. Jeff Masters (right), Bob Henson (left), Chris Burt, and other regular contributors.

Nearby

Air Quality

  Air Quality AQ Index Pollutant
Not available.

Snow Depth

Station Depth Elevation

Earthquake Activity

City Distance Mag. Time & Date
Minimum magnitude displayed is 2.5.

Coastal Water Temperatures

Place Temperature

Stations

Nearby Weather Stations

Station Location Temp. Windchill Dew Point Humidity Wind Precip. Elev Updated Type